createdAt,value
2023-01-09T00:01:53.743Z,97.92
2023-01-09T00:04:25.140Z,97.57
2023-01-09T00:06:56.630Z,97.30
2023-01-09T00:09:30.190Z,97.30
2023-01-09T00:12:04.666Z,97.97
2023-01-09T00:14:35.516Z,97.38
2023-01-09T00:17:09.319Z,97.27
2023-01-09T00:19:44.092Z,97.64
2023-01-09T00:22:18.588Z,97.93
2023-01-09T00:24:50.153Z,97.09
2023-01-09T00:27:21.470Z,98.02
2023-01-09T00:29:51.845Z,98.60
2023-01-09T00:32:23.759Z,98.52
2023-01-09T00:34:56.693Z,98.29
2023-01-09T00:37:27.395Z,97.50
2023-01-09T00:39:59.102Z,98.23
2023-01-09T00:42:36.779Z,98.60
2023-01-09T00:45:18.720Z,98.40
2023-01-09T00:47:54.228Z,98.27
2023-01-09T00:50:28.705Z,98.43
2023-01-09T00:53:07.390Z,98.11
2023-01-09T00:55:40.400Z,97.83
2023-01-09T00:58:11.695Z,98.02
2023-01-09T01:00:43.328Z,98.12
2023-01-09T01:03:18.681Z,98.46
2023-01-09T01:06:08.179Z,98.59
2023-01-09T01:08:38.917Z,99.02
2023-01-09T01:11:12.853Z,98.97
2023-01-09T01:13:42.877Z,99.42
2023-01-09T01:16:15.313Z,98.96
2023-01-09T01:18:48.506Z,99.52
2023-01-09T01:21:20.159Z,99.84
2023-01-09T01:23:51.077Z,100.00
2023-01-09T01:26:22.913Z,100.00
2023-01-09T01:28:54.293Z,100.00
2023-01-09T01:31:25.717Z,100.00
2023-01-09T01:33:59.873Z,100.00
2023-01-09T01:36:30.305Z,100.00
2023-01-09T01:39:04.371Z,100.00
2023-01-09T01:41:35.648Z,100.00
2023-01-09T01:44:09.071Z,100.00
2023-01-09T01:46:38.872Z,100.00
2023-01-09T01:49:16.947Z,100.00
2023-01-09T01:51:53.966Z,100.00
2023-01-09T01:54:28.738Z,100.00
2023-01-09T01:57:05.306Z,100.00
2023-01-09T01:59:40.153Z,100.00
2023-01-09T02:02:13.047Z,100.00
2023-01-09T02:04:50.188Z,100.00
2023-01-09T02:07:22.321Z,100.00
2023-01-09T02:09:53.415Z,100.00
2023-01-09T02:12:27.677Z,100.00
2023-01-09T02:15:03.533Z,100.00
2023-01-09T02:18:13.423Z,100.00
2023-01-09T02:20:56.808Z,100.00
2023-01-09T02:24:07.593Z,100.00
2023-01-09T02:26:59.162Z,100.00
2023-01-09T02:30:12.207Z,100.00
2023-01-09T02:33:10.003Z,100.00
2023-01-09T02:36:10.528Z,100.00
2023-01-09T02:38:50.441Z,100.00
2023-01-09T02:41:26.756Z,100.00
2023-01-09T02:44:20.331Z,100.00
2023-01-09T02:47:02.743Z,100.00
2023-01-09T02:49:35.296Z,100.00
2023-01-09T02:52:21.876Z,100.00
2023-01-09T02:55:06.772Z,100.00
2023-01-09T02:57:56.484Z,100.00
2023-01-09T03:00:36.910Z,100.00
2023-01-09T03:03:14.108Z,100.00
2023-01-09T03:05:49.508Z,100.00
2023-01-09T03:08:24.929Z,100.00
2023-01-09T03:11:01.809Z,100.00
2023-01-09T03:13:36.043Z,100.00
2023-01-09T03:16:10.400Z,100.00
2023-01-09T03:18:44.519Z,100.00
2023-01-09T03:21:17.282Z,100.00
2023-01-09T03:23:51.170Z,100.00
2023-01-09T03:26:22.059Z,100.00
2023-01-09T03:28:53.106Z,100.00
2023-01-09T03:31:22.824Z,100.00
2023-01-09T03:33:56.255Z,100.00
2023-01-09T03:36:27.114Z,100.00
2023-01-09T03:38:59.525Z,100.00
2023-01-09T03:41:31.326Z,100.00
2023-01-09T03:44:02.401Z,100.00
2023-01-09T03:46:33.576Z,100.00
2023-01-09T03:49:04.640Z,100.00
2023-01-09T03:51:38.784Z,100.00
2023-01-09T03:54:10.682Z,100.00
2023-01-09T03:56:41.671Z,100.00
2023-01-09T03:59:12.312Z,100.00
2023-01-09T04:01:42.971Z,100.00
2023-01-09T04:04:16.115Z,100.00
2023-01-09T04:06:48.679Z,100.00
2023-01-09T04:09:19.222Z,100.00
2023-01-09T04:11:53.688Z,100.00
2023-01-09T04:14:27.365Z,100.00
2023-01-09T04:16:59.852Z,100.00
2023-01-09T04:19:32.567Z,100.00
2023-01-09T04:22:04.409Z,100.00
2023-01-09T04:24:35.662Z,100.00
2023-01-09T04:27:07.061Z,100.00
2023-01-09T04:29:37.233Z,100.00
2023-01-09T04:32:09.296Z,100.00
2023-01-09T04:34:41.369Z,100.00
2023-01-09T04:37:14.617Z,100.00
2023-01-09T04:39:46.048Z,100.00
2023-01-09T04:42:17.021Z,100.00
2023-01-09T04:44:48.695Z,100.00
2023-01-09T04:47:21.664Z,100.00
2023-01-09T04:49:54.943Z,100.00
2023-01-09T04:52:27.038Z,100.00
2023-01-09T04:55:02.938Z,100.00
2023-01-09T04:57:34.228Z,100.00
2023-01-09T05:00:10.155Z,100.00
2023-01-09T05:02:41.511Z,100.00
2023-01-09T05:05:15.254Z,100.00
2023-01-09T05:07:47.636Z,100.00
2023-01-09T05:10:20.087Z,100.00
2023-01-09T05:12:53.251Z,100.00
2023-01-09T05:15:25.119Z,100.00
2023-01-09T05:17:56.409Z,100.00
2023-01-09T05:20:27.817Z,100.00
2023-01-09T05:23:00.033Z,100.00
2023-01-09T05:25:29.795Z,100.00
2023-01-09T05:28:01.648Z,100.00
2023-01-09T05:30:31.273Z,100.00
2023-01-09T05:33:02.089Z,100.00
2023-01-09T05:35:32.811Z,100.00
2023-01-09T05:38:03.374Z,100.00
2023-01-09T05:40:40.360Z,100.00
2023-01-09T05:43:10.583Z,100.00
2023-01-09T05:45:40.714Z,100.00
2023-01-09T05:48:13.811Z,100.00
2023-01-09T05:50:45.197Z,100.00
2023-01-09T05:53:15.555Z,100.00
2023-01-09T05:55:45.429Z,100.00
2023-01-09T05:58:15.650Z,100.00
2023-01-09T06:00:46.068Z,100.00
2023-01-09T06:03:16.541Z,100.00
2023-01-09T06:05:52.036Z,100.00
2023-01-09T06:08:24.510Z,100.00
2023-01-09T06:10:54.370Z,100.00
2023-01-09T06:13:25.414Z,100.00
2023-01-09T06:15:55.829Z,100.00
2023-01-09T06:18:25.658Z,100.00
2023-01-09T06:20:56.911Z,100.00
2023-01-09T06:23:27.012Z,100.00
2023-01-09T06:25:57.011Z,100.00
2023-01-09T06:28:29.052Z,100.00
2023-01-09T06:30:59.763Z,100.00
2023-01-09T06:33:32.324Z,100.00
2023-01-09T06:36:03.425Z,100.00
2023-01-09T06:38:35.011Z,100.00
2023-01-09T06:41:05.772Z,100.00
2023-01-09T06:43:35.572Z,100.00
2023-01-09T06:46:06.736Z,100.00
2023-01-09T06:48:36.609Z,100.00
2023-01-09T06:51:07.972Z,100.00
2023-01-09T06:53:39.119Z,100.00
2023-01-09T06:56:08.835Z,100.00
2023-01-09T06:58:39.170Z,100.00
2023-01-09T07:01:10.096Z,100.00
2023-01-09T07:03:40.299Z,100.00
2023-01-09T07:06:11.772Z,100.00
2023-01-09T07:08:44.050Z,100.00
2023-01-09T07:11:14.578Z,100.00
2023-01-09T07:13:44.805Z,100.00
2023-01-09T07:16:14.652Z,100.00
2023-01-09T07:18:44.105Z,100.00
2023-01-09T07:21:15.975Z,100.00
2023-01-09T07:23:45.439Z,100.00
2023-01-09T07:26:15.574Z,100.00
2023-01-09T07:28:45.741Z,100.00
2023-01-09T07:31:16.183Z,100.00
2023-01-09T07:33:46.474Z,100.00
2023-01-09T07:36:18.544Z,100.00
2023-01-09T07:38:48.663Z,100.00
2023-01-09T07:41:18.864Z,100.00
2023-01-09T07:43:48.775Z,100.00
2023-01-09T07:46:19.665Z,100.00
2023-01-09T07:48:49.915Z,100.00
2023-01-09T07:51:21.863Z,100.00
2023-01-09T07:53:52.095Z,100.00
2023-01-09T07:56:22.568Z,100.00
2023-01-09T07:58:52.558Z,100.00
2023-01-09T08:01:22.977Z,100.00
2023-01-09T08:03:53.339Z,100.00
2023-01-09T08:06:24.833Z,100.00
2023-01-09T08:08:55.013Z,100.00
2023-01-09T08:11:25.412Z,100.00
2023-01-09T08:13:55.448Z,100.00
2023-01-09T08:16:26.346Z,100.00
2023-01-09T08:18:57.521Z,100.00
2023-01-09T08:21:30.272Z,100.00
2023-01-09T08:24:00.802Z,100.00
2023-01-09T08:26:31.839Z,100.00
2023-01-09T08:29:02.369Z,100.00
2023-01-09T08:31:33.067Z,100.00
2023-01-09T08:34:03.413Z,100.00
2023-01-09T08:36:35.269Z,100.00
2023-01-09T08:39:05.576Z,100.00
2023-01-09T08:41:53.146Z,100.00
2023-01-09T08:44:40.911Z,100.00
2023-01-09T08:47:13.439Z,100.00
2023-01-09T08:49:42.995Z,100.00
2023-01-09T08:52:14.748Z,100.00
2023-01-09T08:54:44.770Z,100.00
2023-01-09T08:57:15.347Z,100.00
2023-01-09T08:59:45.815Z,100.00
2023-01-09T09:02:15.621Z,100.00
2023-01-09T09:04:46.364Z,100.00
2023-01-09T09:07:18.640Z,100.00
2023-01-09T09:09:48.403Z,100.00
2023-01-09T09:12:20.945Z,100.00
2023-01-09T09:15:08.253Z,100.00
2023-01-09T09:17:38.257Z,100.00
2023-01-09T09:20:09.822Z,100.00
2023-01-09T09:22:43.495Z,100.00
2023-01-09T09:25:13.968Z,100.00
2023-01-09T09:27:43.996Z,100.00
2023-01-09T09:30:15.514Z,100.00
2023-01-09T09:32:46.072Z,100.00
2023-01-09T09:35:18.159Z,100.00
2023-01-09T09:37:56.960Z,100.00
2023-01-09T09:40:41.856Z,100.00
2023-01-09T09:43:43.496Z,100.00
2023-01-09T09:46:22.355Z,100.00
2023-01-09T09:48:57.658Z,100.00
2023-01-09T09:51:51.941Z,98.37
2023-01-09T09:54:29.277Z,99.49
2023-01-09T09:57:01.815Z,100.00
2023-01-09T09:59:38.667Z,100.00
2023-01-09T10:02:25.369Z,100.00
2023-01-09T10:05:01.871Z,100.00
2023-01-09T10:07:36.558Z,98.94
2023-01-09T10:10:15.924Z,99.67
2023-01-09T10:12:54.820Z,100.00
2023-01-09T10:15:38.392Z,99.40
2023-01-09T10:18:19.577Z,100.00
2023-01-09T10:20:58.910Z,100.00
2023-01-09T10:23:44.724Z,100.00
2023-01-09T10:26:23.756Z,100.00
2023-01-09T10:29:33.094Z,100.00
2023-01-09T10:32:19.235Z,100.00
2023-01-09T10:35:01.027Z,100.00
2023-01-09T10:37:37.764Z,100.00
2023-01-09T10:40:16.149Z,100.00
2023-01-09T10:42:53.288Z,100.00
2023-01-09T10:45:27.143Z,100.00
2023-01-09T10:48:03.618Z,99.46
2023-01-09T10:50:40.067Z,98.81
2023-01-09T10:53:20.847Z,98.38
2023-01-09T10:55:54.548Z,98.62
2023-01-09T10:58:26.209Z,97.34
2023-01-09T11:00:56.988Z,97.66
2023-01-09T11:03:29.647Z,98.91
2023-01-09T11:06:02.971Z,98.49
2023-01-09T11:08:37.329Z,98.69
2023-01-09T11:11:07.470Z,98.27
2023-01-09T11:13:45.389Z,97.97
2023-01-09T11:16:23.728Z,98.03
2023-01-09T11:18:55.608Z,97.32
2023-01-09T11:21:33.208Z,95.70
2023-01-09T11:24:29.896Z,96.17
2023-01-09T11:27:25.594Z,98.02
2023-01-09T11:30:26.448Z,98.15
2023-01-09T11:32:58.105Z,99.81
2023-01-09T11:35:34.383Z,100.00
2023-01-09T11:38:08.923Z,99.82
2023-01-09T11:40:47.776Z,99.40
2023-01-09T11:43:21.701Z,99.00
2023-01-09T11:46:01.114Z,98.25
2023-01-09T11:48:35.845Z,97.48
2023-01-09T11:51:08.366Z,97.63
2023-01-09T11:53:53.161Z,97.58
2023-01-09T11:56:23.174Z,97.77
2023-01-09T11:58:52.753Z,95.92
2023-01-09T12:02:00.649Z,95.24
2023-01-09T12:04:36.119Z,94.38
2023-01-09T12:07:42.133Z,94.57
2023-01-09T12:10:32.467Z,94.27
2023-01-09T12:13:12.350Z,93.65
2023-01-09T12:15:54.756Z,93.06
2023-01-09T12:18:38.438Z,92.83
2023-01-09T12:21:22.195Z,92.66
2023-01-09T12:24:12.750Z,91.61
2023-01-09T12:26:51.237Z,91.32
2023-01-09T12:29:38.303Z,92.04
2023-01-09T12:32:24.703Z,91.70
2023-01-09T12:35:04.853Z,92.10
2023-01-09T12:38:02.535Z,92.42
2023-01-09T12:40:50.074Z,90.79
2023-01-09T12:43:26.656Z,91.40
2023-01-09T12:46:04.501Z,91.77
2023-01-09T12:49:04.115Z,91.70
2023-01-09T12:51:39.913Z,91.40
2023-01-09T12:54:17.597Z,91.64
2023-01-09T12:56:51.182Z,91.38
2023-01-09T12:59:32.922Z,90.04
2023-01-09T13:02:15.656Z,89.50
2023-01-09T13:04:51.169Z,89.21
2023-01-09T13:07:27.603Z,89.34
2023-01-09T13:10:03.776Z,90.67
2023-01-09T13:12:36.829Z,89.26
2023-01-09T13:15:08.112Z,89.57
2023-01-09T13:17:42.832Z,90.38
2023-01-09T13:20:21.961Z,90.24
2023-01-09T13:22:55.566Z,91.89
2023-01-09T13:25:43.372Z,89.57
2023-01-09T13:28:21.409Z,88.88
2023-01-09T13:31:10.087Z,89.49
2023-01-09T13:33:42.455Z,89.27
2023-01-09T13:36:24.193Z,89.36
2023-01-09T13:38:56.745Z,89.73
2023-01-09T13:41:45.991Z,89.72
2023-01-09T13:44:28.819Z,88.41
2023-01-09T13:47:01.775Z,88.79
2023-01-09T13:49:33.942Z,89.01
2023-01-09T13:52:06.729Z,87.86
2023-01-09T13:55:04.248Z,87.82
2023-01-09T13:57:35.978Z,87.36
2023-01-09T14:00:42.809Z,87.53
2023-01-09T14:03:26.130Z,86.86
2023-01-09T14:06:22.749Z,87.38
2023-01-09T14:09:13.001Z,88.39
2023-01-09T14:11:45.211Z,89.34
2023-01-09T14:14:27.181Z,89.11
2023-01-09T14:16:57.033Z,87.56
2023-01-09T14:19:34.156Z,87.75
2023-01-09T14:22:04.417Z,87.70
2023-01-09T14:24:40.240Z,88.45
2023-01-09T14:27:51.633Z,88.11
2023-01-09T14:30:33.233Z,87.45
2023-01-09T14:33:04.253Z,87.87
2023-01-09T14:35:44.093Z,87.03
2023-01-09T14:38:30.244Z,87.23
2023-01-09T14:41:07.924Z,87.10
2023-01-09T14:43:53.730Z,87.39
2023-01-09T14:46:24.434Z,87.07
2023-01-09T14:49:05.485Z,87.46
2023-01-09T14:51:39.641Z,87.64
2023-01-09T14:54:29.947Z,88.54
2023-01-09T14:57:02.484Z,88.50
2023-01-09T14:59:33.690Z,88.35
2023-01-09T15:02:03.856Z,89.53
2023-01-09T15:04:39.316Z,90.21
2023-01-09T15:07:08.877Z,90.11
2023-01-09T15:09:45.800Z,88.94
2023-01-09T15:12:19.871Z,89.52
2023-01-09T15:14:53.465Z,88.22
2023-01-09T15:17:26.530Z,87.59
2023-01-09T15:19:57.435Z,86.84
2023-01-09T15:22:30.844Z,87.89
2023-01-09T15:25:00.864Z,87.64
2023-01-09T15:27:30.373Z,89.26
2023-01-09T15:30:18.417Z,89.32
2023-01-09T15:32:50.217Z,89.56
2023-01-09T15:35:21.295Z,90.75
2023-01-09T15:37:55.525Z,90.17
2023-01-09T15:40:28.784Z,89.95
2023-01-09T15:43:03.471Z,90.51
2023-01-09T15:45:37.449Z,89.65
2023-01-09T15:48:22.068Z,90.73
2023-01-09T15:50:55.571Z,89.67
2023-01-09T15:53:26.763Z,90.33
2023-01-09T15:56:09.156Z,90.75
2023-01-09T15:58:40.777Z,90.92
2023-01-09T16:01:25.928Z,89.90
2023-01-09T16:03:57.333Z,90.27
2023-01-09T16:06:34.084Z,91.30
2023-01-09T16:09:05.544Z,90.80
2023-01-09T16:11:37.603Z,91.63
2023-01-09T16:14:15.565Z,90.42
2023-01-09T16:16:48.372Z,91.09
2023-01-09T16:19:31.499Z,91.44
2023-01-09T16:22:02.581Z,91.87
2023-01-09T16:24:41.157Z,92.35
2023-01-09T16:27:27.349Z,91.22
2023-01-09T16:29:59.455Z,92.31
2023-01-09T16:32:32.306Z,93.25
2023-01-09T16:35:06.067Z,94.95
2023-01-09T16:37:37.443Z,94.82
2023-01-09T16:40:17.934Z,94.32
2023-01-09T16:43:01.892Z,94.14
2023-01-09T16:45:34.811Z,94.61
2023-01-09T16:48:13.840Z,93.90
2023-01-09T16:50:47.180Z,92.11
2023-01-09T16:53:19.666Z,91.83
2023-01-09T16:55:54.108Z,92.34
2023-01-09T16:58:27.121Z,91.93
2023-01-09T17:00:56.834Z,92.51
2023-01-09T17:03:27.863Z,92.69
2023-01-09T17:06:01.592Z,93.23
2023-01-09T17:08:37.319Z,92.28
2023-01-09T17:11:07.298Z,91.52
2023-01-09T17:13:36.709Z,91.62
2023-01-09T17:16:07.399Z,91.81
2023-01-09T17:18:38.325Z,92.79
2023-01-09T17:21:07.599Z,92.16
2023-01-09T17:23:36.441Z,94.25
2023-01-09T17:26:23.398Z,93.72
2023-01-09T17:28:52.708Z,91.72
2023-01-09T17:31:21.658Z,90.87
2023-01-09T17:33:52.448Z,93.20
2023-01-09T17:36:28.574Z,92.89
2023-01-09T17:38:57.437Z,93.58
2023-01-09T17:41:28.713Z,92.64
2023-01-09T17:43:58.854Z,93.04
2023-01-09T17:46:30.673Z,92.93
2023-01-09T17:49:02.008Z,92.36
2023-01-09T17:51:30.938Z,91.96
2023-01-09T17:54:00.887Z,93.85
2023-01-09T17:56:33.805Z,94.64
2023-01-09T17:59:03.142Z,94.95
2023-01-09T18:01:32.409Z,94.25
2023-01-09T18:04:03.110Z,92.82
2023-01-09T18:06:32.525Z,93.22
2023-01-09T18:09:02.313Z,93.31
2023-01-09T18:11:31.407Z,91.52
2023-01-09T18:14:00.901Z,91.92
2023-01-09T18:16:30.840Z,93.16
2023-01-09T18:19:00.524Z,93.73
2023-01-09T18:21:31.785Z,93.69
2023-01-09T18:24:03.373Z,93.74
2023-01-09T18:26:32.891Z,93.74
2023-01-09T18:29:03.549Z,94.76
2023-01-09T18:31:33.777Z,95.48
2023-01-09T18:34:05.645Z,93.50
2023-01-09T18:36:36.858Z,93.67
2023-01-09T18:39:08.151Z,91.80
2023-01-09T18:41:38.063Z,91.71
2023-01-09T18:44:07.751Z,92.08
2023-01-09T18:46:39.461Z,90.83
2023-01-09T18:49:11.281Z,91.08
2023-01-09T18:51:43.486Z,90.67
2023-01-09T18:54:13.324Z,90.89
2023-01-09T18:56:43.008Z,90.52
2023-01-09T18:59:12.658Z,90.60
2023-01-09T19:01:42.181Z,89.93
2023-01-09T19:04:13.494Z,89.77
2023-01-09T19:06:44.200Z,89.80
2023-01-09T19:09:13.953Z,89.38
2023-01-09T19:11:44.438Z,90.02
2023-01-09T19:14:17.944Z,89.41
2023-01-09T19:16:47.397Z,89.01
2023-01-09T19:19:17.459Z,88.84
2023-01-09T19:21:48.148Z,88.81
2023-01-09T19:24:21.144Z,87.78
2023-01-09T19:26:51.785Z,87.24
2023-01-09T19:29:20.895Z,86.41
2023-01-09T19:31:52.169Z,86.06
2023-01-09T19:34:21.495Z,85.90
2023-01-09T19:36:52.552Z,86.50
2023-01-09T19:39:22.893Z,88.69
2023-01-09T19:41:55.430Z,88.81
2023-01-09T19:44:28.523Z,90.54
2023-01-09T19:46:58.346Z,90.09
2023-01-09T19:49:28.640Z,87.21
2023-01-09T19:52:00.819Z,87.96
2023-01-09T19:54:31.492Z,87.74
2023-01-09T19:57:01.319Z,87.40
2023-01-09T19:59:30.594Z,86.52
2023-01-09T20:02:00.165Z,86.71
2023-01-09T20:04:30.045Z,85.34
2023-01-09T20:07:00.466Z,85.23
2023-01-09T20:09:32.424Z,84.70
2023-01-09T20:12:04.275Z,83.92
2023-01-09T20:14:36.629Z,84.07
2023-01-09T20:17:06.785Z,83.68
2023-01-09T20:19:35.935Z,84.25
2023-01-09T20:22:07.339Z,83.71
2023-01-09T20:24:37.400Z,83.29
2023-01-09T20:27:07.604Z,83.60
2023-01-09T20:29:36.968Z,83.35
2023-01-09T20:32:09.011Z,83.50
2023-01-09T20:34:38.607Z,81.88
2023-01-09T20:37:09.975Z,81.92
2023-01-09T20:39:42.097Z,82.79
2023-01-09T20:42:12.261Z,81.57
2023-01-09T20:44:42.069Z,80.86
2023-01-09T20:47:12.932Z,80.28
2023-01-09T20:49:42.346Z,80.28
2023-01-09T20:52:13.034Z,81.01
2023-01-09T20:54:45.353Z,80.90
2023-01-09T20:57:15.687Z,81.17
2023-01-09T20:59:45.374Z,80.86
2023-01-09T21:02:16.014Z,81.31
2023-01-09T21:04:45.537Z,80.04
2023-01-09T21:07:19.271Z,79.27
2023-01-09T21:09:49.143Z,79.02
2023-01-09T21:12:36.345Z,79.55
2023-01-09T21:15:11.805Z,79.75
2023-01-09T21:17:42.214Z,78.68
2023-01-09T21:20:14.967Z,79.26
2023-01-09T21:22:46.252Z,79.64
2023-01-09T21:25:16.820Z,79.23
2023-01-09T21:27:47.867Z,78.95
2023-01-09T21:30:18.970Z,79.99
2023-01-09T21:32:48.927Z,79.06
2023-01-09T21:35:18.901Z,78.83
2023-01-09T21:37:50.922Z,78.67
2023-01-09T21:40:21.301Z,79.03
2023-01-09T21:43:08.144Z,79.39
2023-01-09T21:45:57.602Z,79.13
2023-01-09T21:48:27.809Z,79.16
2023-01-09T21:50:58.123Z,80.34
2023-01-09T21:53:28.734Z,80.59
2023-01-09T21:55:58.132Z,80.34
2023-01-09T21:58:27.866Z,79.96
2023-01-09T22:01:01.072Z,80.08
2023-01-09T22:03:31.258Z,79.92
2023-01-09T22:06:04.875Z,80.74
2023-01-09T22:08:36.211Z,80.39
2023-01-09T22:11:06.208Z,80.39
2023-01-09T22:13:35.764Z,81.49
2023-01-09T22:16:06.569Z,81.86
2023-01-09T22:18:39.343Z,82.32
2023-01-09T22:21:09.622Z,83.02
2023-01-09T22:23:43.368Z,82.32
2023-01-09T22:26:15.588Z,81.85
2023-01-09T22:28:46.739Z,79.80
2023-01-09T22:31:19.154Z,79.94
2023-01-09T22:33:51.956Z,80.24
2023-01-09T22:36:23.317Z,80.82
2023-01-09T22:38:56.139Z,81.38
2023-01-09T22:41:29.730Z,82.43
2023-01-09T22:44:00.222Z,81.99
2023-01-09T22:46:32.063Z,81.16
2023-01-09T22:49:04.481Z,81.83
2023-01-09T22:51:35.296Z,82.50
2023-01-09T22:54:06.616Z,83.39
2023-01-09T22:56:36.516Z,83.75
2023-01-09T22:59:08.928Z,83.83
2023-01-09T23:01:38.753Z,84.25
2023-01-09T23:04:08.446Z,84.34
2023-01-09T23:06:40.776Z,84.78
2023-01-09T23:09:11.924Z,85.03
2023-01-09T23:11:58.758Z,86.04
2023-01-09T23:14:28.604Z,86.92
2023-01-09T23:17:01.142Z,87.07
2023-01-09T23:19:32.599Z,87.55
2023-01-09T23:22:03.463Z,88.51
2023-01-09T23:24:34.575Z,88.13
2023-01-09T23:27:05.212Z,88.03
2023-01-09T23:29:39.653Z,88.75
2023-01-09T23:32:12.239Z,88.86
2023-01-09T23:34:42.450Z,88.50
2023-01-09T23:37:12.524Z,87.62
2023-01-09T23:39:43.921Z,86.48
2023-01-09T23:42:32.896Z,86.59
2023-01-09T23:45:02.678Z,86.34
2023-01-09T23:47:32.027Z,87.31
2023-01-09T23:50:02.846Z,87.72
2023-01-09T23:52:32.023Z,88.03
2023-01-09T23:55:03.154Z,88.43
2023-01-09T23:57:35.230Z,88.92
